Donner Trail Elementary, Kingvale, California Weather observations

Data are for observation ending at time listed.
 Day   Time    Ave.   Ave.  Ave.  Vector   Max.   Stn.    Total    Solar   Ave.   Snow 
  of    of     Air    Rel.  Wind   Wind    Wind   Baro.  Precip.   Rad.    Soil   Depth
Year   Day     Temp.  Hum.  Speed  Dir.    Gust   Pres.                    Temp.       
2014   (PST)    F      %     mph   deg.    mph     mb.     in.     W/m2     F      in. 
---------------------------------------------------------------------------------------  
 292   20:10   30.5    88    0.4   271      0.4   814.4    0.00       0    999.0  212.2
 292   20:20   30.3    89    0.4   271      0.4   814.4    0.00       0    999.0  212.2
 292   20:30   30.0    89    0.4   275      0.4   814.5    0.00       0    999.0  212.2
 292   20:40   29.8    90    0.4   312      0.4   814.5    0.00       0    999.0  212.2
 292   20:50   29.6    90    0.4   282      0.4   814.5    0.00       0    999.0  212.2
 292   21:00   29.3    91    0.4   274      0.4   814.5    0.00       0    999.0  212.2
 292   21:10   29.2    91    0.4   286      0.4   814.4    0.00       0    999.0  212.2
 292   21:20   29.0    91    0.4   298      0.4   814.4    0.00       0    999.0  212.2
 292   21:30   28.9    91    0.4   287      0.4   814.5    0.00       0    999.0  212.2
 292   21:40   28.8    92    0.4   282      0.4   814.6    0.00       0    999.0  212.2
 292   21:50   28.5    92    0.4   298      0.4   814.6    0.00       0    999.0  212.2
 292   22:00   28.4    92    0.4   275      0.4   814.5    0.00       0    999.0  212.2
 292   22:10   28.4    92    0.4   264      0.4   814.4    0.00       0    999.0  212.2
 292   22:20   28.2    92    0.4   261      0.4   814.3    0.00       0    999.0  212.2
 292   22:30   27.8    93    0.4   260      0.4   814.2    0.00       0    999.0  212.2
 292   22:40   27.5    93    0.4   251      0.4   814.2    0.00       0    999.0  212.2
 292   22:50   27.4    94    0.4   302      0.4   814.2    0.00       0    999.0  212.2
 292   23:00   27.3    94    0.4   274      0.4   814.2    0.00       0    999.0  212.2
 292   23:10   27.1    94    0.4   259      0.4   814.2    0.00       0    999.0  212.2
 292   23:20   26.9    95    0.4   292      0.4   814.3    0.00       0    999.0  212.2
 292   23:30   26.8    95    0.4   298      0.4   814.3    0.00       0    999.0  212.2
 292   23:40   26.9    95    0.4   287      0.4   814.2    0.00       0    999.0  212.2
 292   23:50   26.8    95    0.4   231      0.4   814.3    0.00       0    999.0  212.2
 293    0:00   26.4    95    0.4   284      0.4   814.1    0.00       0    999.0  212.2
 293    0:10   26.1    95    0.4   261      0.4   814.2    0.00       0    999.0  212.2
 293    0:20   25.9    95    0.4   283      0.4   814.1    0.00       0    999.0  212.2
 293    0:30   25.7    96    0.4   260      0.4   814.2    0.00       0    999.0  212.2
 293    0:40   25.4    96    0.4   286      0.4   814.2    0.00       0    999.0  212.2
 293    0:50   25.3    96    0.4   271      0.4   814.2    0.00       0    999.0  212.2
 293    1:00   25.1    96    0.4   284      0.4   814.2    0.00       0    999.0  212.2
 293    1:10   25.0    96    0.4   257      0.4   814.3    0.00       0    999.0  212.2
 293    1:20   25.1    97    0.4   264      0.4   814.3    0.00       0    999.0  212.2
 293    1:30   25.2    97    0.4   286      0.4   814.2    0.00       0    999.0  212.2
 293    1:40   25.0    97    0.4   278      0.4   814.3    0.00       0    999.0  212.2
 293    1:50   24.8    97    0.4   284      0.4   814.2    0.00       0    999.0  212.2
 293    2:00   24.5    97    0.4   267      0.4   814.2    0.00       0    999.0  212.2
 293    2:10   24.4    97    0.4   274      0.4   814.1    0.00       0    999.0  212.2
 293    2:20   24.3    97    0.4   281      0.4   814.1    0.00       0    999.0  212.2
 293    2:30   24.3    98    0.4   257      0.4   814.0    0.00       0    999.0  212.2
 293    2:40   24.4    98    0.4   289      0.4   814.1    0.00       0    999.0  212.2
 293    2:50   24.5    98    0.4   281      0.4   814.1    0.00       0    999.0  212.2
 293    3:00   24.2    98    0.4   273      0.4   814.1    0.00       0    999.0  212.2
 293    3:10   23.9    98    0.4   281      0.4   814.0    0.00       0    999.0  212.2
 293    3:20   23.9    98    0.4   277      0.4   813.8    0.00       0    999.0  212.2
 293    3:30   23.8    98    0.4   267      0.4   813.8    0.00       0    999.0  212.2
 293    3:40   23.5    98    0.4   271      0.4   813.7    0.00       0    999.0  212.2
 293    3:50   23.3    98    0.4   278      0.4   813.7    0.00       0    999.0  212.2
 293    4:00   23.3    98    0.4   288      0.4   813.6    0.00       0    999.0  212.2
 293    4:10   23.1    98    0.4   273      0.4   813.6    0.00       0    999.0  212.2
 293    4:20   23.2    98    0.4   263      0.4   813.6    0.00       0    999.0  212.2
 293    4:30   23.3    98    0.4   288      0.4   813.6    0.00       0    999.0  212.2
 293    4:40   23.3    98    0.4   266      0.4   813.6    0.00       0    999.0  212.2
 293    4:50   23.3    98    0.4   274      0.4   813.6    0.00       0    999.0  212.2
 293    5:00   23.2    98    0.4   266      0.4   813.5    0.00       0    999.0  212.2
 293    5:10   23.5    99    0.4   264      0.4   813.5    0.00       0    999.0  212.2
 293    5:20   23.7    99    0.4   276      0.4   813.4    0.00       0    999.0  212.2
 293    5:30   23.5    99    0.4   293      0.4   813.4    0.00       0    999.0  212.2
 293    5:40   23.6    99    0.4   269      0.4   813.4    0.00       0    999.0  212.2
 293    5:50   23.6    99    0.4   284      0.4   813.5    0.00       0    999.0  999.0
 293    6:00   23.5    99    0.4   277      0.4   813.4    0.00       0    999.0  212.2
 293    6:10   23.4    99    0.4   289      0.4   813.5    0.00       0    999.0  212.2
 293    6:20   23.6    99    0.4   302      0.4   813.6    0.00       0    999.0  212.2
 293    6:30   23.9    99    0.4   271      0.4   813.6    0.00       0    999.0  212.2
 293    6:40   24.4    99    0.4   284      0.4   813.6    0.00      11    999.0  212.2
 293    6:50   25.1    99    0.4   273      0.4   813.8    0.00      38    999.0  212.2
 293    7:00   26.0    99    0.4   276      0.4   814.0    0.00      66    999.0  212.2
 293    7:10   27.1    99    0.4   285      0.4   814.1    0.00      69    999.0  212.2
 293    7:20   28.4    98    0.4   285      0.4   814.2    0.00      69    999.0  212.2
 293    7:30   29.8    98    0.4   321      0.4   814.1    0.00      69    999.0  212.2
 293    7:40   30.9    98    0.4   292      0.4   814.2    0.00     130    999.0  212.2
 293    7:50   32.3    97    0.4    26      0.4   814.2    0.00     252    999.0  212.2
 293    8:00   34.2    95    0.4    46      0.4   814.2    0.00      81    999.0  212.2
 293    8:10   37.3    87    0.4    87      0.4   814.2    0.00     406    999.0  212.2
 293    8:20   40.3    74    0.4    99      0.4   814.2    0.00     415    999.0  212.2
 293    8:30   41.8    70    0.4    76      0.4   814.2    0.00     463    999.0  212.2
 293    8:40   42.7    68    0.4    38      0.4   814.2    0.00     482    999.0  212.2
 293    8:50   43.3    67    0.4    88      0.4   814.2    0.00     488    999.0  212.2
 293    9:00   43.8    66    0.4    35      0.4   814.3    0.00     512    999.0  212.2
 293    9:10   44.1    64    0.4    37      0.4   814.2    0.00     517    999.0  212.2
 293    9:20   44.6    64    0.4    30      0.4   814.2    0.00     517    999.0  212.2
 293    9:30   45.1    61    0.4   356      0.4   814.1    0.00     559    999.0  212.2
 293    9:40   45.4    60    0.4    25      0.4   814.0    0.00     577    999.0  212.2
 293    9:50   45.7    60    0.4    47      0.4   814.0    0.00     603    999.0  212.2
 293   10:00   46.3    59    0.4    61      0.4   814.0    0.00     556    999.0  212.2
 293   10:10   45.8    59    0.4    48      0.4   814.0    0.00     478    999.0  212.2
 293   10:20   45.7    60    0.4    56      0.4   814.0    0.00     405    999.0  212.2
 293   10:30   45.5    61    0.4    58      0.4   813.9    0.00     523    999.0  212.2
 293   10:40   45.4    62    0.4    55      0.4   813.9    0.00     468    999.0  212.2
 293   10:50   46.1    60    0.4    66      0.4   813.9    0.00     593    999.0  212.2
 293   11:00   46.7    58    0.4    53      0.4   814.0    0.00     667    999.0  212.2
 293   11:10   47.6    56    0.4    46      0.4   814.0    0.00     579    999.0  212.2
 293   11:20   46.9    57    0.4    38      0.4   814.0    0.00     548    999.0  212.2
 293   11:30   46.7    57    0.4    54      0.4   814.0    0.00     596    999.0  212.2
 293   11:40   46.5    58    0.4    51      0.4   814.0    0.00     462    999.0  212.2
 293   11:50   45.8    58    0.4    58      0.4   813.8    0.00     372    999.0  212.2
 293   12:00   45.1    60    0.4    50      0.4   813.8    0.00     480    999.0  212.2
 293   12:10   45.5    60    0.4    57      0.4   813.7    0.00     422    999.0  212.2
 293   12:20   46.3    57    0.4    56      0.4   813.7    0.00     474    999.0  212.2
 293   12:30   46.9    57    0.4    50      0.4   813.6    0.00     450    999.0  212.2
 293   12:40   48.2    55    0.4    50      0.4   813.7    0.00     511    999.0  212.2
 293   12:50   47.7    56    0.4    35      0.4   813.6    0.00     493    999.0  212.2
 293   13:00   47.2    56    0.4    66      0.4   813.6    0.00     431    999.0  212.2
 293   13:10   47.0    55    0.4    59      0.4   813.5    0.00     457    999.0  212.2
 293   13:20   46.8    56    0.4    83      0.4   813.5    0.00     430    999.0  212.2
 293   13:30   47.6    54    0.4    51      0.4   813.4    0.00     623    999.0  212.2
 293   13:40   47.6    53    0.4    64      0.4   813.4    0.00     437    999.0  212.2
 293   13:50   46.9    56    0.4   349      0.4   813.3    0.00     396    999.0  212.2
 293   14:00   46.6    56    0.4    16      0.4   813.2    0.00     213    999.0  212.2
 293   14:10   46.5    56    0.4    48      0.4   813.2    0.00     251    999.0  212.2
 293   14:20   45.9    57    0.4    62      0.4   813.2    0.00     300    999.0  212.2
 293   14:30   46.1    57    0.4    46      0.4   813.2    0.00     217    999.0  212.2
 293   14:40   44.2    62    0.4    61      0.4   813.2    0.00     179    999.0  212.2
 293   14:50   44.3    63    0.4    34      0.4   813.1    0.00     270    999.0  212.2
 293   15:00   46.4    60    0.4    73      0.4   812.9    0.00     368    999.0  212.2
 293   15:10   45.0    63    0.4    65      0.4   812.9    0.00     179    999.0  212.2
 293   15:20   42.9    67    0.4    55      0.4   813.0    0.00      81    999.0  212.2
 293   15:30   42.1    70    0.4    49      0.4   813.0    0.00      91    999.0  212.2
 293   15:40   41.4    70    0.4    58      0.4   812.9    0.00      75    999.0  212.2
 293   15:50   40.8    73    0.4    48      0.4   812.9    0.00      64    999.0  212.2
 293   16:00   40.3    76    0.4    51      0.4   812.9    0.00      22    999.0  212.2
 293   16:10   39.9    77    0.4    36      0.4   812.8    0.00       0    999.0  212.2
 293   16:20   39.6    76    0.4    72      0.4   812.7    0.00       0    999.0  212.2
 293   16:30   39.3    76    0.4    61      0.4   812.6    0.00       0    999.0  212.2
 293   16:40   38.9    77    0.4    58      0.4   812.6    0.00       0    999.0  212.2
 293   16:50   38.8    76    0.4    99      0.4   812.5    0.00       0    999.0  212.2
 293   17:00   38.9    76    0.4    58      0.4   812.4    0.00       0    999.0  212.2
 293   17:10   38.6    77    0.4    59      0.4   812.3    0.00       0    999.0  212.2
 293   17:20   38.7    76    0.4   350      0.4   812.2    0.00       0    999.0  212.2
 293   17:30   38.7    76    0.4    67      0.4   812.2    0.00       0    999.0  212.2
 293   17:40   38.0    83    0.4    69      0.4   812.1    0.00       0    999.0  212.2
 293   17:50   37.3    86    0.4    57      0.4   811.8    0.00       0    999.0  212.2
 293   18:00   36.6    89    0.4    72      0.4   812.2    0.00       0    999.0  212.2
 293   18:10   32.6    92    0.4    61      0.4   812.5    0.01       0    999.0  212.2
 293   18:20   31.9    95    0.4   227      0.4   812.5    0.00       0    999.0  212.2
 293   18:30   32.4    96    0.4   124      0.4   812.6    0.01       0    999.0  212.2
 293   18:40   33.3    97    0.4    79      0.4   812.5    0.01       0    999.0  212.2
 293   18:50   33.7    97    0.4   130      0.4   812.4    0.01       0    999.0  212.2
 293   19:00   34.1    97    0.4    17      0.4   812.4    0.00       0    999.0  212.2
 293   19:10   34.1    97    0.4    77      0.4   812.3    0.01       0    999.0  212.2
 293   19:20   33.8    97    0.4    66      0.4   812.2    0.01       0    999.0  212.2
 293   19:30   33.5    97    0.4    75      0.4   812.2    0.00       0    999.0  212.2
 293   19:40   33.2    96    0.4    58      0.4   812.6    0.01       0    999.0  212.2
 293   19:50   32.4    96    0.4    62      0.4   812.7    0.01       0    999.0  212.2
 293   20:00   31.4    95    0.4    59      0.4   813.0    0.01       0    999.0  212.2

Return to Donner Trail Elementary graphs page.


Western Regional Climate Center,wrcc@dri.edu